sensor_id;sensor_type;location;lat;lon;timestamp;P1;durP1;ratioP1;P2;durP2;ratioP2
1567;SDS011;777;47.156;8.326;2023-04-24T00:01:30;1.23;;;0.80;;
1567;SDS011;777;47.156;8.326;2023-04-24T00:03:59;1.25;;;0.45;;
1567;SDS011;777;47.156;8.326;2023-04-24T00:06:26;0.80;;;0.40;;
1567;SDS011;777;47.156;8.326;2023-04-24T00:08:58;1.77;;;0.40;;
1567;SDS011;777;47.156;8.326;2023-04-24T00:11:26;0.57;;;0.43;;
1567;SDS011;777;47.156;8.326;2023-04-24T00:13:53;0.60;;;0.50;;
1567;SDS011;777;47.156;8.326;2023-04-24T00:16:21;1.90;;;0.43;;
1567;SDS011;777;47.156;8.326;2023-04-24T00:18:49;0.93;;;0.52;;
1567;SDS011;777;47.156;8.326;2023-04-24T00:21:21;0.30;;;0.30;;
1567;SDS011;777;47.156;8.326;2023-04-24T00:23:50;1.58;;;0.30;;
1567;SDS011;777;47.156;8.326;2023-04-24T00:26:18;1.42;;;0.30;;
1567;SDS011;777;47.156;8.326;2023-04-24T00:28:45;0.73;;;0.30;;
1567;SDS011;777;47.156;8.326;2023-04-24T00:31:12;0.80;;;0.20;;
1567;SDS011;777;47.156;8.326;2023-04-24T00:33:39;1.05;;;0.35;;
1567;SDS011;777;47.156;8.326;2023-04-24T00:36:07;1.35;;;0.20;;
1567;SDS011;777;47.156;8.326;2023-04-24T00:38:34;0.43;;;0.20;;
1567;SDS011;777;47.156;8.326;2023-04-24T00:41:02;0.60;;;0.30;;
1567;SDS011;777;47.156;8.326;2023-04-24T00:43:29;1.08;;;0.28;;
1567;SDS011;777;47.156;8.326;2023-04-24T00:45:56;0.73;;;0.30;;
1567;SDS011;777;47.156;8.326;2023-04-24T00:48:24;0.77;;;0.38;;
1567;SDS011;777;47.156;8.326;2023-04-24T00:50:52;0.68;;;0.30;;
1567;SDS011;777;47.156;8.326;2023-04-24T00:53:21;0.70;;;0.40;;
1567;SDS011;777;47.156;8.326;2023-04-24T00:55:48;1.15;;;0.47;;
1567;SDS011;777;47.156;8.326;2023-04-24T00:58:15;0.75;;;0.50;;
1567;SDS011;777;47.156;8.326;2023-04-24T01:00:42;0.60;;;0.30;;
1567;SDS011;777;47.156;8.326;2023-04-24T01:03:10;1.83;;;0.40;;
1567;SDS011;777;47.156;8.326;2023-04-24T01:05:38;0.65;;;0.38;;
1567;SDS011;777;47.156;8.326;2023-04-24T01:08:05;0.70;;;0.30;;
1567;SDS011;777;47.156;8.326;2023-04-24T01:10:34;1.77;;;0.40;;
1567;SDS011;777;47.156;8.326;2023-04-24T01:13:02;0.63;;;0.50;;
1567;SDS011;777;47.156;8.326;2023-04-24T01:15:29;1.00;;;0.40;;
1567;SDS011;777;47.156;8.326;2023-04-24T01:17:56;0.60;;;0.30;;
1567;SDS011;777;47.156;8.326;2023-04-24T01:20:23;1.80;;;0.43;;
1567;SDS011;777;47.156;8.326;2023-04-24T01:22:53;2.13;;;0.50;;
1567;SDS011;777;47.156;8.326;2023-04-24T01:25:22;0.65;;;0.30;;
1567;SDS011;777;47.156;8.326;2023-04-24T01:27:49;1.48;;;0.50;;
1567;SDS011;777;47.156;8.326;2023-04-24T01:30:16;0.57;;;0.40;;
1567;SDS011;777;47.156;8.326;2023-04-24T01:32:43;0.60;;;0.50;;
1567;SDS011;777;47.156;8.326;2023-04-24T01:35:11;1.35;;;0.40;;
1567;SDS011;777;47.156;8.326;2023-04-24T01:37:38;0.60;;;0.45;;
1567;SDS011;777;47.156;8.326;2023-04-24T01:40:07;0.75;;;0.30;;
1567;SDS011;777;47.156;8.326;2023-04-24T01:42:35;0.40;;;0.40;;
1567;SDS011;777;47.156;8.326;2023-04-24T01:45:03;1.33;;;0.30;;
1567;SDS011;777;47.156;8.326;2023-04-24T01:47:31;0.50;;;0.20;;
1567;SDS011;777;47.156;8.326;2023-04-24T01:49:58;0.30;;;0.22;;
1567;SDS011;777;47.156;8.326;2023-04-24T01:52:25;0.50;;;0.30;;
1567;SDS011;777;47.156;8.326;2023-04-24T01:54:54;0.77;;;0.30;;
1567;SDS011;777;47.156;8.326;2023-04-24T01:57:23;0.88;;;0.20;;
1567;SDS011;777;47.156;8.326;2023-04-24T01:59:50;0.22;;;0.20;;
1567;SDS011;777;47.156;8.326;2023-04-24T02:02:17;0.50;;;0.28;;
1567;SDS011;777;47.156;8.326;2023-04-24T02:04:46;1.00;;;0.20;;
1567;SDS011;777;47.156;8.326;2023-04-24T02:07:13;0.63;;;0.30;;
1567;SDS011;777;47.156;8.326;2023-04-24T02:09:40;1.90;;;0.30;;
1567;SDS011;777;47.156;8.326;2023-04-24T02:12:07;0.20;;;0.10;;
1567;SDS011;777;47.156;8.326;2023-04-24T02:14:36;0.25;;;0.20;;
1567;SDS011;777;47.156;8.326;2023-04-24T02:17:03;1.05;;;0.10;;
1567;SDS011;777;47.156;8.326;2023-04-24T02:19:31;0.22;;;0.20;;
1567;SDS011;777;47.156;8.326;2023-04-24T02:21:58;0.20;;;0.10;;
1567;SDS011;777;47.156;8.326;2023-04-24T02:24:26;0.10;;;0.10;;
1567;SDS011;777;47.156;8.326;2023-04-24T02:26:53;0.82;;;0.20;;
1567;SDS011;777;47.156;8.326;2023-04-24T02:29:20;0.22;;;0.20;;
1567;SDS011;777;47.156;8.326;2023-04-24T02:31:50;1.17;;;0.20;;
1567;SDS011;777;47.156;8.326;2023-04-24T02:34:17;0.32;;;0.17;;
1567;SDS011;777;47.156;8.326;2023-04-24T02:36:44;0.20;;;0.05;;
1567;SDS011;777;47.156;8.326;2023-04-24T02:39:11;1.35;;;0.10;;
1567;SDS011;777;47.156;8.326;2023-04-24T02:41:39;0.22;;;0.10;;
1567;SDS011;777;47.156;8.326;2023-04-24T02:44:07;0.08;;;0.00;;
1567;SDS011;777;47.156;8.326;2023-04-24T02:46:35;0.15;;;0.10;;
1567;SDS011;777;47.156;8.326;2023-04-24T02:49:03;0.00;;;0.00;;
1567;SDS011;777;47.156;8.326;2023-04-24T02:51:30;0.10;;;0.00;;
1567;SDS011;777;47.156;8.326;2023-04-24T02:53:57;0.00;;;0.00;;
1567;SDS011;777;47.156;8.326;2023-04-24T02:56:24;0.43;;;0.10;;
1567;SDS011;777;47.156;8.326;2023-04-24T02:58:52;0.20;;;0.00;;
1567;SDS011;777;47.156;8.326;2023-04-24T03:01:19;0.00;;;0.00;;
1567;SDS011;777;47.156;8.326;2023-04-24T03:03:46;0.88;;;0.00;;
1567;SDS011;777;47.156;8.326;2023-04-24T03:06:14;0.10;;;0.00;;
1567;SDS011;777;47.156;8.326;2023-04-24T03:08:41;0.00;;;0.00;;
1567;SDS011;777;47.156;8.326;2023-04-24T03:11:10;0.00;;;0.00;;
1567;SDS011;777;47.156;8.326;2023-04-24T03:13:37;0.10;;;0.05;;
1567;SDS011;777;47.156;8.326;2023-04-24T03:16:04;0.32;;;0.10;;
1567;SDS011;777;47.156;8.326;2023-04-24T03:18:31;0.47;;;0.10;;
1567;SDS011;777;47.156;8.326;2023-04-24T03:20:59;0.28;;;0.10;;
1567;SDS011;777;47.156;8.326;2023-04-24T03:23:28;0.00;;;0.00;;
1567;SDS011;777;47.156;8.326;2023-04-24T03:25:55;1.30;;;0.15;;
1567;SDS011;777;47.156;8.326;2023-04-24T03:28:22;0.20;;;0.13;;
1567;SDS011;777;47.156;8.326;2023-04-24T03:30:57;0.05;;;0.00;;
1567;SDS011;777;47.156;8.326;2023-04-24T03:33:28;0.05;;;0.00;;
1567;SDS011;777;47.156;8.326;2023-04-24T03:35:59;1.42;;;0.10;;
1567;SDS011;777;47.156;8.326;2023-04-24T03:38:35;0.10;;;0.08;;
1567;SDS011;777;47.156;8.326;2023-04-24T03:41:21;0.47;;;0.10;;
1567;SDS011;777;47.156;8.326;2023-04-24T03:43:53;0.13;;;0.10;;
1567;SDS011;777;47.156;8.326;2023-04-24T03:46:20;0.25;;;0.13;;
1567;SDS011;777;47.156;8.326;2023-04-24T03:48:52;0.45;;;0.20;;
1567;SDS011;777;47.156;8.326;2023-04-24T03:51:24;0.10;;;0.10;;
1567;SDS011;777;47.156;8.326;2023-04-24T03:53:57;0.25;;;0.10;;
1567;SDS011;777;47.156;8.326;2023-04-24T03:56:27;0.57;;;0.20;;
1567;SDS011;777;47.156;8.326;2023-04-24T03:58:54;0.40;;;0.10;;
1567;SDS011;777;47.156;8.326;2023-04-24T04:01:21;0.30;;;0.10;;
1567;SDS011;777;47.156;8.326;2023-04-24T04:04:00;0.52;;;0.00;;
1567;SDS011;777;47.156;8.326;2023-04-24T04:06:28;0.17;;;0.10;;
1567;SDS011;777;47.156;8.326;2023-04-24T04:08:58;0.20;;;0.10;;
1567;SDS011;777;47.156;8.326;2023-04-24T04:11:25;0.80;;;0.20;;
1567;SDS011;777;47.156;8.326;2023-04-24T04:13:52;0.20;;;0.10;;
1567;SDS011;777;47.156;8.326;2023-04-24T04:16:21;0.20;;;0.10;;
1567;SDS011;777;47.156;8.326;2023-04-24T04:18:51;0.38;;;0.10;;
1567;SDS011;777;47.156;8.326;2023-04-24T04:21:18;1.75;;;0.65;;
1567;SDS011;777;47.156;8.326;2023-04-24T04:23:47;0.52;;;0.20;;
1567;SDS011;777;47.156;8.326;2023-04-24T04:26:31;0.55;;;0.17;;
1567;SDS011;777;47.156;8.326;2023-04-24T04:29:02;0.17;;;0.10;;
1567;SDS011;777;47.156;8.326;2023-04-24T04:31:31;0.35;;;0.10;;
1567;SDS011;777;47.156;8.326;2023-04-24T04:34:02;1.65;;;0.10;;
1567;SDS011;777;47.156;8.326;2023-04-24T04:36:31;0.70;;;0.10;;
1567;SDS011;777;47.156;8.326;2023-04-24T04:39:14;0.50;;;0.20;;
1567;SDS011;777;47.156;8.326;2023-04-24T04:42:06;0.43;;;0.17;;
1567;SDS011;777;47.156;8.326;2023-04-24T04:44:38;0.40;;;0.17;;
1567;SDS011;777;47.156;8.326;2023-04-24T04:47:08;0.65;;;0.20;;
1567;SDS011;777;47.156;8.326;2023-04-24T04:49:36;1.40;;;0.30;;
1567;SDS011;777;47.156;8.326;2023-04-24T04:52:07;0.20;;;0.10;;
1567;SDS011;777;47.156;8.326;2023-04-24T04:54:34;1.15;;;0.25;;
1567;SDS011;777;47.156;8.326;2023-04-24T04:57:01;0.45;;;0.10;;
1567;SDS011;777;47.156;8.326;2023-04-24T04:59:30;0.77;;;0.20;;
1567;SDS011;777;47.156;8.326;2023-04-24T05:02:03;0.50;;;0.20;;
1567;SDS011;777;47.156;8.326;2023-04-24T05:04:30;0.70;;;0.40;;
1567;SDS011;777;47.156;8.326;2023-04-24T05:06:57;0.73;;;0.20;;
1567;SDS011;777;47.156;8.326;2023-04-24T05:09:27;0.95;;;0.30;;
1567;SDS011;777;47.156;8.326;2023-04-24T05:12:00;1.05;;;0.32;;
1567;SDS011;777;47.156;8.326;2023-04-24T05:14:31;7.57;;;0.40;;
1567;SDS011;777;47.156;8.326;2023-04-24T05:16:58;2.40;;;0.30;;
1567;SDS011;777;47.156;8.326;2023-04-24T05:19:26;1.08;;;0.30;;
1567;SDS011;777;47.156;8.326;2023-04-24T05:21:53;1.30;;;0.40;;
1567;SDS011;777;47.156;8.326;2023-04-24T05:24:20;1.50;;;0.30;;
1567;SDS011;777;47.156;8.326;2023-04-24T05:26:59;0.85;;;0.40;;
1567;SDS011;777;47.156;8.326;2023-04-24T05:29:34;0.40;;;0.13;;
1567;SDS011;777;47.156;8.326;2023-04-24T05:32:03;0.85;;;0.20;;
1567;SDS011;777;47.156;8.326;2023-04-24T05:34:31;0.70;;;0.20;;
1567;SDS011;777;47.156;8.326;2023-04-24T05:36:58;0.40;;;0.20;;
1567;SDS011;777;47.156;8.326;2023-04-24T05:39:25;0.82;;;0.20;;
1567;SDS011;777;47.156;8.326;2023-04-24T05:41:53;1.95;;;0.25;;
1567;SDS011;777;47.156;8.326;2023-04-24T05:44:23;1.00;;;0.20;;
1567;SDS011;777;47.156;8.326;2023-04-24T05:46:52;0.47;;;0.25;;
1567;SDS011;777;47.156;8.326;2023-04-24T05:49:20;1.17;;;0.20;;
1567;SDS011;777;47.156;8.326;2023-04-24T05:51:47;0.63;;;0.25;;
1567;SDS011;777;47.156;8.326;2023-04-24T05:54:16;1.48;;;0.30;;
1567;SDS011;777;47.156;8.326;2023-04-24T05:56:43;1.58;;;0.60;;
1567;SDS011;777;47.156;8.326;2023-04-24T05:59:14;0.85;;;0.30;;
1567;SDS011;777;47.156;8.326;2023-04-24T06:01:41;0.77;;;0.30;;
1567;SDS011;777;47.156;8.326;2023-04-24T06:04:15;2.58;;;0.40;;
1567;SDS011;777;47.156;8.326;2023-04-24T06:06:42;1.00;;;0.22;;
1567;SDS011;777;47.156;8.326;2023-04-24T06:09:09;1.33;;;0.30;;
1567;SDS011;777;47.156;8.326;2023-04-24T06:11:38;0.90;;;0.40;;
1567;SDS011;777;47.156;8.326;2023-04-24T06:14:07;0.93;;;0.30;;
1567;SDS011;777;47.156;8.326;2023-04-24T06:16:37;1.83;;;0.43;;
1567;SDS011;777;47.156;8.326;2023-04-24T06:19:16;2.03;;;0.50;;
1567;SDS011;777;47.156;8.326;2023-04-24T06:21:43;0.68;;;0.30;;
1567;SDS011;777;47.156;8.326;2023-04-24T06:24:10;1.52;;;0.50;;
1567;SDS011;777;47.156;8.326;2023-04-24T06:26:37;1.35;;;0.30;;
1567;SDS011;777;47.156;8.326;2023-04-24T06:29:06;1.17;;;0.43;;
1567;SDS011;777;47.156;8.326;2023-04-24T06:31:34;2.05;;;0.57;;
1567;SDS011;777;47.156;8.326;2023-04-24T06:34:02;1.70;;;0.52;;
1567;SDS011;777;47.156;8.326;2023-04-24T06:36:30;1.52;;;0.60;;
1567;SDS011;777;47.156;8.326;2023-04-24T06:38:59;1.38;;;0.60;;
1567;SDS011;777;47.156;8.326;2023-04-24T06:41:26;1.50;;;0.52;;
1567;SDS011;777;47.156;8.326;2023-04-24T06:43:54;0.65;;;0.50;;
1567;SDS011;777;47.156;8.326;2023-04-24T06:46:21;2.28;;;0.60;;
1567;SDS011;777;47.156;8.326;2023-04-24T06:48:51;2.13;;;0.60;;
1567;SDS011;777;47.156;8.326;2023-04-24T06:51:21;2.58;;;0.50;;
1567;SDS011;777;47.156;8.326;2023-04-24T06:53:50;1.45;;;0.70;;
1567;SDS011;777;47.156;8.326;2023-04-24T06:56:18;1.50;;;0.57;;
1567;SDS011;777;47.156;8.326;2023-04-24T06:58:45;2.53;;;0.70;;
1567;SDS011;777;47.156;8.326;2023-04-24T07:01:12;1.67;;;0.80;;
1567;SDS011;777;47.156;8.326;2023-04-24T07:03:40;2.25;;;0.70;;
1567;SDS011;777;47.156;8.326;2023-04-24T07:06:07;2.33;;;0.82;;
1567;SDS011;777;47.156;8.326;2023-04-24T07:08:36;2.55;;;0.95;;
1567;SDS011;777;47.156;8.326;2023-04-24T07:11:04;2.47;;;0.98;;
1567;SDS011;777;47.156;8.326;2023-04-24T07:13:31;3.80;;;1.38;;
1567;SDS011;777;47.156;8.326;2023-04-24T07:16:00;3.65;;;1.20;;
1567;SDS011;777;47.156;8.326;2023-04-24T07:18:27;4.60;;;1.60;;
1567;SDS011;777;47.156;8.326;2023-04-24T07:20:54;2.80;;;1.58;;
1567;SDS011;777;47.156;8.326;2023-04-24T07:23:21;2.78;;;1.52;;
1567;SDS011;777;47.156;8.326;2023-04-24T07:25:48;4.47;;;1.45;;
1567;SDS011;777;47.156;8.326;2023-04-24T07:28:17;2.42;;;1.70;;
1567;SDS011;777;47.156;8.326;2023-04-24T07:30:44;4.45;;;1.70;;
1567;SDS011;777;47.156;8.326;2023-04-24T07:33:11;2.80;;;1.67;;
1567;SDS011;777;47.156;8.326;2023-04-24T07:35:38;3.17;;;1.50;;
1567;SDS011;777;47.156;8.326;2023-04-24T07:38:05;3.40;;;1.70;;
1567;SDS011;777;47.156;8.326;2023-04-24T07:40:32;3.35;;;2.13;;
1567;SDS011;777;47.156;8.326;2023-04-24T07:42:59;1.98;;;1.30;;
1567;SDS011;777;47.156;8.326;2023-04-24T07:45:27;4.10;;;1.40;;
1567;SDS011;777;47.156;8.326;2023-04-24T07:47:56;4.45;;;1.40;;
1567;SDS011;777;47.156;8.326;2023-04-24T07:50:23;3.20;;;1.17;;
1567;SDS011;777;47.156;8.326;2023-04-24T07:52:50;4.28;;;1.25;;
1567;SDS011;777;47.156;8.326;2023-04-24T07:55:17;3.83;;;1.30;;
1567;SDS011;777;47.156;8.326;2023-04-24T07:57:44;1.00;;;0.70;;
1567;SDS011;777;47.156;8.326;2023-04-24T08:00:11;2.90;;;1.10;;
1567;SDS011;777;47.156;8.326;2023-04-24T08:02:40;2.92;;;1.33;;
1567;SDS011;777;47.156;8.326;2023-04-24T08:05:08;4.07;;;1.20;;
1567;SDS011;777;47.156;8.326;2023-04-24T08:07:35;3.33;;;1.10;;
1567;SDS011;777;47.156;8.326;2023-04-24T08:10:02;4.38;;;1.30;;
1567;SDS011;777;47.156;8.326;2023-04-24T08:12:30;3.25;;;1.30;;
1567;SDS011;777;47.156;8.326;2023-04-24T08:14:57;2.40;;;0.93;;
1567;SDS011;777;47.156;8.326;2023-04-24T08:17:24;2.80;;;1.00;;
1567;SDS011;777;47.156;8.326;2023-04-24T08:19:52;2.47;;;1.15;;
1567;SDS011;777;47.156;8.326;2023-04-24T08:22:26;1.58;;;1.15;;
1567;SDS011;777;47.156;8.326;2023-04-24T08:24:53;1.70;;;1.00;;
1567;SDS011;777;47.156;8.326;2023-04-24T08:27:21;2.05;;;0.98;;
1567;SDS011;777;47.156;8.326;2023-04-24T08:29:48;1.75;;;0.85;;
1567;SDS011;777;47.156;8.326;2023-04-24T08:32:15;1.45;;;0.80;;
1567;SDS011;777;47.156;8.326;2023-04-24T08:34:43;1.92;;;0.80;;
1567;SDS011;777;47.156;8.326;2023-04-24T08:37:11;3.15;;;1.38;;
1567;SDS011;777;47.156;8.326;2023-04-24T08:39:39;2.92;;;1.08;;
1567;SDS011;777;47.156;8.326;2023-04-24T08:42:06;2.95;;;0.90;;
1567;SDS011;777;47.156;8.326;2023-04-24T08:44:33;3.55;;;0.98;;
1567;SDS011;777;47.156;8.326;2023-04-24T08:47:02;4.15;;;0.98;;
1567;SDS011;777;47.156;8.326;2023-04-24T08:49:29;1.92;;;1.05;;
1567;SDS011;777;47.156;8.326;2023-04-24T08:51:56;2.55;;;0.90;;
1567;SDS011;777;47.156;8.326;2023-04-24T08:54:26;2.83;;;0.90;;
1567;SDS011;777;47.156;8.326;2023-04-24T08:56:55;1.58;;;0.90;;
1567;SDS011;777;47.156;8.326;2023-04-24T08:59:27;4.25;;;1.13;;
1567;SDS011;777;47.156;8.326;2023-04-24T09:01:54;1.65;;;1.00;;
1567;SDS011;777;47.156;8.326;2023-04-24T09:04:22;2.70;;;1.05;;
1567;SDS011;777;47.156;8.326;2023-04-24T09:06:49;1.88;;;1.08;;
1567;SDS011;777;47.156;8.326;2023-04-24T09:09:17;2.35;;;1.20;;
1567;SDS011;777;47.156;8.326;2023-04-24T09:11:46;3.83;;;2.33;;
1567;SDS011;777;47.156;8.326;2023-04-24T09:14:13;5.53;;;1.73;;
1567;SDS011;777;47.156;8.326;2023-04-24T09:16:40;3.08;;;1.35;;
1567;SDS011;777;47.156;8.326;2023-04-24T09:19:08;2.67;;;1.35;;
1567;SDS011;777;47.156;8.326;2023-04-24T09:21:35;5.07;;;1.80;;
1567;SDS011;777;47.156;8.326;2023-04-24T09:24:03;2.58;;;1.40;;
1567;SDS011;777;47.156;8.326;2023-04-24T09:26:31;3.15;;;1.50;;
1567;SDS011;777;47.156;8.326;2023-04-24T09:29:02;5.15;;;1.40;;
1567;SDS011;777;47.156;8.326;2023-04-24T09:31:30;3.78;;;1.33;;
1567;SDS011;777;47.156;8.326;2023-04-24T09:33:58;2.58;;;1.10;;
1567;SDS011;777;47.156;8.326;2023-04-24T09:36:26;3.50;;;1.50;;
1567;SDS011;777;47.156;8.326;2023-04-24T09:38:57;3.25;;;1.10;;
1567;SDS011;777;47.156;8.326;2023-04-24T09:41:25;3.83;;;0.90;;
1567;SDS011;777;47.156;8.326;2023-04-24T09:43:53;2.63;;;1.08;;
1567;SDS011;777;47.156;8.326;2023-04-24T09:46:28;2.63;;;1.20;;
1567;SDS011;777;47.156;8.326;2023-04-24T09:48:57;2.38;;;0.88;;
1567;SDS011;777;47.156;8.326;2023-04-24T09:51:35;2.97;;;1.33;;
1567;SDS011;777;47.156;8.326;2023-04-24T09:54:04;3.50;;;1.20;;
1567;SDS011;777;47.156;8.326;2023-04-24T09:56:41;2.58;;;1.38;;
1567;SDS011;777;47.156;8.326;2023-04-24T09:59:10;2.90;;;1.10;;
1567;SDS011;777;47.156;8.326;2023-04-24T10:01:39;1.60;;;1.00;;
1567;SDS011;777;47.156;8.326;2023-04-24T10:04:16;2.95;;;0.98;;
1567;SDS011;777;47.156;8.326;2023-04-24T10:06:44;2.78;;;0.85;;
1567;SDS011;777;47.156;8.326;2023-04-24T10:09:14;2.55;;;0.85;;
1567;SDS011;777;47.156;8.326;2023-04-24T10:11:42;2.00;;;0.90;;
1567;SDS011;777;47.156;8.326;2023-04-24T10:14:11;1.55;;;0.70;;
1567;SDS011;777;47.156;8.326;2023-04-24T10:16:41;1.70;;;1.05;;
1567;SDS011;777;47.156;8.326;2023-04-24T10:19:09;2.95;;;1.15;;
1567;SDS011;777;47.156;8.326;2023-04-24T10:21:38;2.33;;;1.00;;
1567;SDS011;777;47.156;8.326;2023-04-24T10:24:07;3.20;;;1.20;;
1567;SDS011;777;47.156;8.326;2023-04-24T10:26:35;3.38;;;0.98;;
1567;SDS011;777;47.156;8.326;2023-04-24T10:29:02;2.30;;;1.02;;
1567;SDS011;777;47.156;8.326;2023-04-24T10:31:35;2.78;;;1.02;;
1567;SDS011;777;47.156;8.326;2023-04-24T10:34:05;3.35;;;0.93;;
1567;SDS011;777;47.156;8.326;2023-04-24T10:36:33;3.95;;;1.20;;
1567;SDS011;777;47.156;8.326;2023-04-24T10:39:02;1.90;;;1.05;;
1567;SDS011;777;47.156;8.326;2023-04-24T10:41:33;2.38;;;1.17;;
1567;SDS011;777;47.156;8.326;2023-04-24T10:44:04;2.70;;;1.02;;
1567;SDS011;777;47.156;8.326;2023-04-24T10:46:32;4.30;;;1.45;;
1567;SDS011;777;47.156;8.326;2023-04-24T10:48:59;1.60;;;1.00;;
1567;SDS011;777;47.156;8.326;2023-04-24T10:51:44;3.03;;;1.13;;
1567;SDS011;777;47.156;8.326;2023-04-24T10:54:22;3.17;;;1.13;;
1567;SDS011;777;47.156;8.326;2023-04-24T10:56:50;3.25;;;1.10;;
1567;SDS011;777;47.156;8.326;2023-04-24T10:59:24;2.67;;;1.10;;
1567;SDS011;777;47.156;8.326;2023-04-24T11:01:55;2.40;;;1.05;;
1567;SDS011;777;47.156;8.326;2023-04-24T11:04:31;4.25;;;1.10;;
1567;SDS011;777;47.156;8.326;2023-04-24T11:07:01;2.85;;;1.25;;
1567;SDS011;777;47.156;8.326;2023-04-24T11:09:30;3.10;;;1.45;;
1567;SDS011;777;47.156;8.326;2023-04-24T11:12:04;4.68;;;1.10;;
1567;SDS011;777;47.156;8.326;2023-04-24T11:17:28;2.58;;;1.10;;
1567;SDS011;777;47.156;8.326;2023-04-24T11:20:00;2.88;;;1.10;;
1567;SDS011;777;47.156;8.326;2023-04-24T11:22:30;4.30;;;1.13;;
1567;SDS011;777;47.156;8.326;2023-04-24T11:25:00;5.18;;;1.27;;
1567;SDS011;777;47.156;8.326;2023-04-24T11:27:31;2.38;;;0.90;;
1567;SDS011;777;47.156;8.326;2023-04-24T11:32:34;5.25;;;1.50;;
1567;SDS011;777;47.156;8.326;2023-04-24T11:35:02;2.67;;;1.10;;
1567;SDS011;777;47.156;8.326;2023-04-24T11:37:35;2.05;;;0.90;;
1567;SDS011;777;47.156;8.326;2023-04-24T11:40:04;2.35;;;1.00;;
1567;SDS011;777;47.156;8.326;2023-04-24T11:42:35;2.90;;;0.77;;
1567;SDS011;777;47.156;8.326;2023-04-24T11:45:06;1.83;;;0.85;;
1567;SDS011;777;47.156;8.326;2023-04-24T11:47:34;2.47;;;1.00;;
1567;SDS011;777;47.156;8.326;2023-04-24T11:50:02;3.30;;;0.90;;
1567;SDS011;777;47.156;8.326;2023-04-24T11:52:31;3.72;;;1.25;;
1567;SDS011;777;47.156;8.326;2023-04-24T11:55:00;5.13;;;1.20;;
1567;SDS011;777;47.156;8.326;2023-04-24T11:57:29;3.83;;;1.40;;
1567;SDS011;777;47.156;8.326;2023-04-24T11:59:59;5.07;;;1.02;;
1567;SDS011;777;47.156;8.326;2023-04-24T12:02:26;2.58;;;1.17;;
1567;SDS011;777;47.156;8.326;2023-04-24T12:04:54;3.00;;;0.90;;
1567;SDS011;777;47.156;8.326;2023-04-24T12:07:21;3.55;;;1.27;;
1567;SDS011;777;47.156;8.326;2023-04-24T12:09:54;1.67;;;1.02;;
1567;SDS011;777;47.156;8.326;2023-04-24T12:12:24;2.70;;;1.00;;
1567;SDS011;777;47.156;8.326;2023-04-24T12:14:52;5.15;;;0.93;;
1567;SDS011;777;47.156;8.326;2023-04-24T12:17:24;1.65;;;0.93;;
1567;SDS011;777;47.156;8.326;2023-04-24T12:19:52;3.17;;;0.98;;
1567;SDS011;777;47.156;8.326;2023-04-24T12:22:24;1.83;;;0.80;;
1567;SDS011;777;47.156;8.326;2023-04-24T12:25:00;2.40;;;0.70;;
1567;SDS011;777;47.156;8.326;2023-04-24T12:27:31;5.43;;;1.08;;
1567;SDS011;777;47.156;8.326;2023-04-24T12:29:59;3.83;;;0.80;;
1567;SDS011;777;47.156;8.326;2023-04-24T12:32:27;2.50;;;0.90;;
1567;SDS011;777;47.156;8.326;2023-04-24T12:34:54;3.25;;;1.00;;
1567;SDS011;777;47.156;8.326;2023-04-24T12:37:23;2.20;;;0.70;;
1567;SDS011;777;47.156;8.326;2023-04-24T12:40:00;2.55;;;0.70;;
1567;SDS011;777;47.156;8.326;2023-04-24T12:42:29;2.85;;;0.80;;
1567;SDS011;777;47.156;8.326;2023-04-24T12:45:00;1.60;;;0.80;;
1567;SDS011;777;47.156;8.326;2023-04-24T12:47:28;2.80;;;1.00;;
1567;SDS011;777;47.156;8.326;2023-04-24T12:49:55;3.92;;;1.00;;
1567;SDS011;777;47.156;8.326;2023-04-24T12:52:23;2.05;;;0.82;;
1567;SDS011;777;47.156;8.326;2023-04-24T12:54:51;1.33;;;0.82;;
1567;SDS011;777;47.156;8.326;2023-04-24T12:57:19;2.20;;;1.02;;
1567;SDS011;777;47.156;8.326;2023-04-24T12:59:48;3.45;;;1.20;;
1567;SDS011;777;47.156;8.326;2023-04-24T13:02:15;2.00;;;0.70;;
1567;SDS011;777;47.156;8.326;2023-04-24T13:04:43;2.28;;;1.02;;
1567;SDS011;777;47.156;8.326;2023-04-24T13:07:12;4.32;;;1.10;;
1567;SDS011;777;47.156;8.326;2023-04-24T13:09:39;1.13;;;0.70;;
1567;SDS011;777;47.156;8.326;2023-04-24T13:12:06;2.67;;;0.80;;
1567;SDS011;777;47.156;8.326;2023-04-24T13:14:33;2.30;;;0.98;;
1567;SDS011;777;47.156;8.326;2023-04-24T13:17:02;4.80;;;0.90;;
1567;SDS011;777;47.156;8.326;2023-04-24T13:19:34;1.92;;;0.63;;
1567;SDS011;777;47.156;8.326;2023-04-24T13:22:02;2.22;;;0.80;;
1567;SDS011;777;47.156;8.326;2023-04-24T13:24:30;2.58;;;0.90;;
1567;SDS011;777;47.156;8.326;2023-04-24T13:26:57;2.80;;;0.93;;
1567;SDS011;777;47.156;8.326;2023-04-24T13:29:26;3.22;;;0.80;;
1567;SDS011;777;47.156;8.326;2023-04-24T13:31:53;5.00;;;0.90;;
1567;SDS011;777;47.156;8.326;2023-04-24T13:34:23;1.88;;;0.63;;
1567;SDS011;777;47.156;8.326;2023-04-24T13:36:51;2.53;;;0.90;;
1567;SDS011;777;47.156;8.326;2023-04-24T13:39:19;2.58;;;0.98;;
1567;SDS011;777;47.156;8.326;2023-04-24T13:41:47;2.47;;;1.10;;
1567;SDS011;777;47.156;8.326;2023-04-24T13:44:14;3.80;;;1.10;;
1567;SDS011;777;47.156;8.326;2023-04-24T13:46:42;3.58;;;1.10;;
1567;SDS011;777;47.156;8.326;2023-04-24T13:49:10;2.80;;;1.10;;
1567;SDS011;777;47.156;8.326;2023-04-24T13:51:39;2.70;;;1.15;;
1567;SDS011;777;47.156;8.326;2023-04-24T13:54:07;9.88;;;1.30;;
1567;SDS011;777;47.156;8.326;2023-04-24T13:56:34;2.58;;;1.10;;
1567;SDS011;777;47.156;8.326;2023-04-24T13:59:02;3.80;;;1.17;;
1567;SDS011;777;47.156;8.326;2023-04-24T14:01:29;2.67;;;0.98;;
1567;SDS011;777;47.156;8.326;2023-04-24T14:03:56;2.67;;;1.00;;
1567;SDS011;777;47.156;8.326;2023-04-24T14:06:23;3.25;;;1.23;;
1567;SDS011;777;47.156;8.326;2023-04-24T14:08:52;2.42;;;1.15;;
1567;SDS011;777;47.156;8.326;2023-04-24T14:11:19;2.65;;;1.10;;
1567;SDS011;777;47.156;8.326;2023-04-24T14:13:46;3.67;;;1.10;;
1567;SDS011;777;47.156;8.326;2023-04-24T14:16:13;1.70;;;1.08;;
1567;SDS011;777;47.156;8.326;2023-04-24T14:18:40;4.03;;;1.05;;
1567;SDS011;777;47.156;8.326;2023-04-24T14:21:07;2.22;;;0.98;;
1567;SDS011;777;47.156;8.326;2023-04-24T14:23:34;3.72;;;0.80;;
1567;SDS011;777;47.156;8.326;2023-04-24T14:26:03;2.47;;;1.10;;
1567;SDS011;777;47.156;8.326;2023-04-24T14:28:30;1.73;;;0.80;;
1567;SDS011;777;47.156;8.326;2023-04-24T14:30:57;2.58;;;1.17;;
1567;SDS011;777;47.156;8.326;2023-04-24T14:33:24;2.17;;;0.80;;
1567;SDS011;777;47.156;8.326;2023-04-24T14:35:51;2.35;;;0.60;;
1567;SDS011;777;47.156;8.326;2023-04-24T14:38:18;1.88;;;0.90;;
1567;SDS011;777;47.156;8.326;2023-04-24T14:40:45;2.17;;;0.60;;
1567;SDS011;777;47.156;8.326;2023-04-24T14:43:13;2.47;;;0.90;;
1567;SDS011;777;47.156;8.326;2023-04-24T14:45:40;2.97;;;0.80;;
1567;SDS011;777;47.156;8.326;2023-04-24T14:48:07;3.80;;;0.82;;
1567;SDS011;777;47.156;8.326;2023-04-24T14:50:36;2.72;;;0.80;;
1567;SDS011;777;47.156;8.326;2023-04-24T14:53:03;4.13;;;0.98;;
1567;SDS011;777;47.156;8.326;2023-04-24T14:55:30;2.22;;;0.70;;
1567;SDS011;777;47.156;8.326;2023-04-24T14:57:59;1.80;;;0.70;;
1567;SDS011;777;47.156;8.326;2023-04-24T15:00:28;1.08;;;0.55;;
1567;SDS011;777;47.156;8.326;2023-04-24T15:02:55;1.92;;;0.70;;
1567;SDS011;777;47.156;8.326;2023-04-24T15:05:22;4.97;;;0.90;;
1567;SDS011;777;47.156;8.326;2023-04-24T15:07:50;2.67;;;0.80;;
1567;SDS011;777;47.156;8.326;2023-04-24T15:10:17;2.22;;;0.70;;
1567;SDS011;777;47.156;8.326;2023-04-24T15:12:44;2.45;;;0.70;;
1567;SDS011;777;47.156;8.326;2023-04-24T15:15:11;1.98;;;0.70;;
1567;SDS011;777;47.156;8.326;2023-04-24T15:17:39;2.03;;;0.90;;
1567;SDS011;777;47.156;8.326;2023-04-24T15:20:07;2.03;;;0.75;;
1567;SDS011;777;47.156;8.326;2023-04-24T15:22:35;2.15;;;0.80;;
1567;SDS011;777;47.156;8.326;2023-04-24T15:29:04;2.47;;;0.70;;
1567;SDS011;777;47.156;8.326;2023-04-24T15:31:31;0.90;;;0.60;;
1567;SDS011;777;47.156;8.326;2023-04-24T15:35:14;3.42;;;0.60;;
1567;SDS011;777;47.156;8.326;2023-04-24T15:37:41;1.88;;;0.60;;
1567;SDS011;777;47.156;8.326;2023-04-24T15:40:13;1.58;;;0.90;;
1567;SDS011;777;47.156;8.326;2023-04-24T15:42:41;2.65;;;0.70;;
1567;SDS011;777;47.156;8.326;2023-04-24T15:45:09;1.88;;;0.70;;
1567;SDS011;777;47.156;8.326;2023-04-24T15:47:37;2.35;;;0.70;;
1567;SDS011;777;47.156;8.326;2023-04-24T15:50:04;1.45;;;0.50;;